Aroma, Indiana
Current Conditions -  °F | °C
As of 8:15 PM on Tuesday 21 Oct 2014 (Local Time) from KTYQ Reporting Station
Overcast Overcast  
Wind Chill:   Ceiling: 4800
Heat Index: 10°   Visibility: 10mi
Dew Point:   Wind: 6mph
Humidity: 74%   Direction: 350°N
Pressure: 30.16"   Gusts: NA
Location:  40.1832°N, 85.9359°W
Report Text: KTYQ 220015Z AUTO 35005KT 10SM OVC048 10/05 A3016 RMK AO2 T00970053
Loading
Personal Weather Stations






























Interactive Weather Map
Tropical Storm Tracking
New forecast layout! Learn more

10-Day Weather Forecast

Advertisements
Track Severe Weather on mobile